createdAt,value
2018-12-24T00:01:58.195Z,127.57
2018-12-24T00:04:37.773Z,126.67
2018-12-24T00:07:17.253Z,129.20
2018-12-24T00:09:56.557Z,135.40
2018-12-24T00:12:36.062Z,128.77
2018-12-24T00:15:16.475Z,134.33
2018-12-24T00:17:56.875Z,137.60
2018-12-24T00:20:37.315Z,126.17
2018-12-24T00:23:17.493Z,132.00
2018-12-24T00:25:57.191Z,128.43
2018-12-24T00:28:36.575Z,130.07
2018-12-24T00:31:16.454Z,129.23
2018-12-24T00:33:56.083Z,131.40
2018-12-24T00:36:36.043Z,128.57
2018-12-24T00:39:16.221Z,125.87
2018-12-24T00:41:56.069Z,126.57
2018-12-24T00:44:35.901Z,125.67
2018-12-24T00:47:16.306Z,126.60
2018-12-24T00:49:56.867Z,137.47
2018-12-24T00:52:37.465Z,129.80
2018-12-24T00:55:17.609Z,129.17
2018-12-24T00:57:56.998Z,130.47
2018-12-24T01:00:36.822Z,131.70
2018-12-24T01:03:16.489Z,137.17
2018-12-24T01:05:55.881Z,130.63
2018-12-24T01:08:35.219Z,130.17
2018-12-24T01:11:14.973Z,130.87
2018-12-24T01:13:54.649Z,135.27
2018-12-24T01:16:34.724Z,133.93
2018-12-24T01:19:14.343Z,133.10
2018-12-24T01:21:53.893Z,127.30
2018-12-24T01:24:33.356Z,133.37
2018-12-24T01:27:13.345Z,134.53
2018-12-24T01:29:53.188Z,131.50
2018-12-24T01:32:32.724Z,129.67
2018-12-24T01:35:12.283Z,127.60
2018-12-24T01:37:52.743Z,127.77
2018-12-24T01:40:32.646Z,127.80
2018-12-24T01:43:14.927Z,123.90
2018-12-24T01:45:54.805Z,125.77
2018-12-24T01:48:34.133Z,122.50
2018-12-24T01:51:13.477Z,126.97
2018-12-24T01:53:53.003Z,120.27
2018-12-24T01:56:32.265Z,120.27
2018-12-24T01:59:11.998Z,119.53
2018-12-24T02:01:51.545Z,121.57
2018-12-24T02:04:30.826Z,119.63
2018-12-24T02:07:10.251Z,123.90
2018-12-24T02:09:49.641Z,125.37
2018-12-24T02:12:27.134Z,119.40
2018-12-24T02:15:13.387Z,119.90
2018-12-24T02:17:59.576Z,119.90
2018-12-24T02:20:45.899Z,114.37
2018-12-24T02:23:32.081Z,116.60
2018-12-24T02:26:18.342Z,117.10
2018-12-24T02:29:12.049Z,119.27
2018-12-24T02:31:58.300Z,116.60
2018-12-24T02:34:44.526Z,118.10
2018-12-24T02:37:30.785Z,116.17
2018-12-24T02:40:17.010Z,118.07
2018-12-24T02:43:03.267Z,120.00
2018-12-24T02:45:43.711Z,118.33
2018-12-24T02:48:23.862Z,119.07
2018-12-24T02:51:03.517Z,115.97
2018-12-24T02:53:43.326Z,117.00
2018-12-24T02:56:22.660Z,116.10
2018-12-24T02:59:01.985Z,118.50
2018-12-24T03:01:41.776Z,120.10
2018-12-24T03:04:21.952Z,117.60
2018-12-24T03:07:01.352Z,118.17
2018-12-24T03:09:41.000Z,117.50
2018-12-24T03:12:21.214Z,118.47
2018-12-24T03:15:00.647Z,116.90
2018-12-24T03:17:39.893Z,115.43
2018-12-24T03:20:19.718Z,118.53
2018-12-24T03:22:59.331Z,110.27
2018-12-24T03:25:38.968Z,109.43
2018-12-24T03:28:18.994Z,108.63
2018-12-24T03:30:58.472Z,109.87
2018-12-24T03:33:37.928Z,109.07
2018-12-24T03:36:17.367Z,109.77
2018-12-24T03:38:56.944Z,109.70
2018-12-24T03:41:36.409Z,110.63
2018-12-24T03:44:15.962Z,110.07
2018-12-24T03:46:55.707Z,112.70
2018-12-24T03:49:35.307Z,111.63
2018-12-24T03:52:15.109Z,109.53
2018-12-24T03:54:54.492Z,109.90
2018-12-24T03:57:34.403Z,110.90
2018-12-24T04:00:13.641Z,111.87
2018-12-24T04:02:53.607Z,111.80
2018-12-24T04:05:33.323Z,114.27
2018-12-24T04:08:12.856Z,110.97
2018-12-24T04:10:52.463Z,112.17
2018-12-24T04:13:32.507Z,113.30
2018-12-24T04:16:12.194Z,113.67
2018-12-24T04:18:52.125Z,111.70
2018-12-24T04:21:31.764Z,113.80
2018-12-24T04:24:11.646Z,114.57
2018-12-24T04:26:51.017Z,114.20
2018-12-24T04:29:31.202Z,112.93
2018-12-24T04:32:10.750Z,111.90
2018-12-24T04:34:51.018Z,111.90
2018-12-24T04:37:30.917Z,110.43
2018-12-24T04:40:10.818Z,111.70
2018-12-24T04:42:50.047Z,110.00
2018-12-24T04:45:29.537Z,111.47
2018-12-24T04:48:08.919Z,109.77
2018-12-24T04:50:48.256Z,109.17
2018-12-24T04:53:27.896Z,110.77
2018-12-24T04:56:07.664Z,109.47
2018-12-24T04:58:47.902Z,105.77
2018-12-24T05:01:27.320Z,108.03
2018-12-24T05:04:06.757Z,109.47
2018-12-24T05:06:46.399Z,108.67
2018-12-24T05:09:26.143Z,108.63
2018-12-24T05:12:05.604Z,109.57
2018-12-24T05:14:45.202Z,109.17
2018-12-24T05:17:25.125Z,108.37
2018-12-24T05:20:04.691Z,109.97
2018-12-24T05:22:44.031Z,109.07
2018-12-24T05:25:23.480Z,109.30
2018-12-24T05:28:03.381Z,113.57
2018-12-24T05:30:43.446Z,110.23
2018-12-24T05:33:23.486Z,111.07
2018-12-24T05:36:02.949Z,110.40
2018-12-24T05:38:42.589Z,111.30
2018-12-24T05:41:22.098Z,111.07
2018-12-24T05:44:01.832Z,109.50
2018-12-24T05:46:41.280Z,110.57
2018-12-24T05:49:20.754Z,113.60
2018-12-24T05:52:00.387Z,110.17
2018-12-24T05:54:39.943Z,109.00
2018-12-24T05:57:19.888Z,110.60
2018-12-24T05:59:59.885Z,110.20
2018-12-24T06:02:40.024Z,113.10
2018-12-24T06:05:19.627Z,110.43
2018-12-24T06:07:58.935Z,110.30
2018-12-24T06:10:38.430Z,110.87
2018-12-24T06:13:17.724Z,109.87
2018-12-24T06:15:57.601Z,109.70
2018-12-24T06:18:37.252Z,111.00
2018-12-24T06:21:16.574Z,111.63
2018-12-24T06:23:56.059Z,112.80
2018-12-24T06:26:35.553Z,111.00
2018-12-24T06:29:15.202Z,111.10
2018-12-24T06:31:55.200Z,110.53
2018-12-24T06:34:35.205Z,113.17
2018-12-24T06:37:14.792Z,110.80
2018-12-24T06:39:54.881Z,110.07
2018-12-24T06:42:34.402Z,109.63
2018-12-24T06:45:13.861Z,114.30
2018-12-24T06:47:53.304Z,110.27
2018-12-24T06:50:32.889Z,110.10
2018-12-24T06:53:12.611Z,113.10
2018-12-24T06:55:52.038Z,113.63
2018-12-24T06:58:31.686Z,113.30
2018-12-24T07:01:11.266Z,113.33
2018-12-24T07:03:50.810Z,114.20
2018-12-24T07:06:30.407Z,114.67
2018-12-24T07:09:10.261Z,113.13
2018-12-24T07:11:50.466Z,114.77
2018-12-24T07:14:30.684Z,117.73
2018-12-24T07:17:10.235Z,115.50
2018-12-24T07:19:50.033Z,114.87
2018-12-24T07:22:29.921Z,116.43
2018-12-24T07:25:09.187Z,115.13
2018-12-24T07:27:48.844Z,115.43
2018-12-24T07:30:28.693Z,117.30
2018-12-24T07:33:08.127Z,113.20
2018-12-24T07:35:47.667Z,114.00
2018-12-24T07:38:27.380Z,113.13
2018-12-24T07:41:07.440Z,116.63
2018-12-24T07:43:47.125Z,112.70
2018-12-24T07:46:26.583Z,113.03
2018-12-24T07:49:05.912Z,114.83
2018-12-24T07:51:46.069Z,115.80
2018-12-24T07:54:26.353Z,114.27
2018-12-24T07:57:05.912Z,111.47
2018-12-24T07:59:45.506Z,113.67
2018-12-24T08:02:25.038Z,114.17
2018-12-24T08:05:04.745Z,114.90
2018-12-24T08:07:44.508Z,115.90
2018-12-24T08:10:23.956Z,112.57
2018-12-24T08:13:03.481Z,113.10
2018-12-24T08:15:42.896Z,114.63
2018-12-24T08:18:22.516Z,113.40
2018-12-24T08:21:02.127Z,114.77
2018-12-24T08:23:42.324Z,116.77
2018-12-24T08:26:21.747Z,115.07
2018-12-24T08:29:01.312Z,118.47
2018-12-24T08:31:40.996Z,115.00
2018-12-24T08:34:20.601Z,113.87
2018-12-24T08:37:00.124Z,115.30
2018-12-24T08:39:39.540Z,116.00
2018-12-24T08:42:19.043Z,116.90
2018-12-24T08:44:58.392Z,114.87
2018-12-24T08:47:37.837Z,114.27
2018-12-24T08:50:17.223Z,115.10
2018-12-24T08:52:56.837Z,114.87
2018-12-24T08:55:36.498Z,117.80
2018-12-24T08:58:16.043Z,115.33
2018-12-24T09:00:55.734Z,117.17
2018-12-24T09:03:35.248Z,115.83
2018-12-24T09:06:14.676Z,116.10
2018-12-24T09:08:54.421Z,119.40
2018-12-24T09:11:20.880Z,118.43
2018-12-24T09:13:47.280Z,114.83
2018-12-24T09:16:13.769Z,116.17
2018-12-24T09:18:40.242Z,114.07
2018-12-24T09:21:06.676Z,113.90
2018-12-24T09:23:33.198Z,112.27
2018-12-24T09:25:59.627Z,120.20
2018-12-24T09:28:26.065Z,114.27
2018-12-24T09:30:52.510Z,119.90
2018-12-24T09:33:19.170Z,111.87
2018-12-24T09:35:45.577Z,112.07
2018-12-24T09:38:12.258Z,109.77
2018-12-24T09:40:38.668Z,111.67
2018-12-24T09:43:05.134Z,110.53
2018-12-24T09:45:51.372Z,112.87
2018-12-24T09:48:37.625Z,112.83
2018-12-24T09:51:23.869Z,110.67
2018-12-24T09:54:10.109Z,109.90
2018-12-24T09:56:56.321Z,110.43
2018-12-24T09:59:42.637Z,108.03
2018-12-24T10:03:02.552Z,111.77
2018-12-24T10:05:38.693Z,107.67
2018-12-24T10:08:24.964Z,107.60
2018-12-24T10:11:11.205Z,110.67
2018-12-24T10:13:57.504Z,109.40
2018-12-24T10:16:43.756Z,111.70
2018-12-24T10:19:29.996Z,108.37
2018-12-24T10:22:16.274Z,108.80
2018-12-24T10:25:02.614Z,111.40
2018-12-24T10:27:48.853Z,107.43
2018-12-24T10:30:35.202Z,106.60
2018-12-24T10:33:21.457Z,105.17
2018-12-24T10:36:07.720Z,105.07
2018-12-24T10:38:54.003Z,106.07
2018-12-24T10:41:40.227Z,104.17
2018-12-24T10:44:26.511Z,106.37
2018-12-24T10:47:12.739Z,106.33
2018-12-24T10:49:52.139Z,105.20
2018-12-24T10:52:31.571Z,106.17
2018-12-24T10:55:11.208Z,104.10
2018-12-24T10:57:50.676Z,107.90
2018-12-24T11:00:30.276Z,106.57
2018-12-24T11:03:09.887Z,110.37
2018-12-24T11:05:49.630Z,105.23
2018-12-24T11:08:29.627Z,106.60
2018-12-24T11:11:09.790Z,104.90
2018-12-24T11:13:49.330Z,107.97
2018-12-24T11:16:28.772Z,104.67
2018-12-24T11:19:09.024Z,105.27
2018-12-24T11:21:48.570Z,106.57
2018-12-24T11:24:28.340Z,104.30
2018-12-24T11:27:07.752Z,104.47
2018-12-24T11:29:47.375Z,106.63
2018-12-24T11:32:26.622Z,105.83
2018-12-24T11:35:06.043Z,106.47
2018-12-24T11:37:46.379Z,106.37
2018-12-24T11:40:26.825Z,104.10
2018-12-24T11:43:06.221Z,105.10
2018-12-24T11:45:45.655Z,105.10
2018-12-24T11:48:25.325Z,104.77
2018-12-24T11:51:05.157Z,104.97
2018-12-24T11:53:44.445Z,105.37
2018-12-24T11:56:24.174Z,105.37
2018-12-24T11:59:03.441Z,105.53
2018-12-24T12:01:42.965Z,107.57
2018-12-24T12:04:22.636Z,108.77
2018-12-24T12:07:02.830Z,105.67
2018-12-24T12:09:42.535Z,105.10
2018-12-24T12:12:21.840Z,109.87
2018-12-24T12:15:01.979Z,104.43
2018-12-24T12:17:41.642Z,104.77
2018-12-24T12:20:22.854Z,105.50
2018-12-24T12:23:02.542Z,109.87
2018-12-24T12:25:42.133Z,105.90
2018-12-24T12:28:22.035Z,105.57
2018-12-24T12:31:01.499Z,106.30
2018-12-24T12:33:41.640Z,105.57
2018-12-24T12:36:21.198Z,108.47
2018-12-24T12:39:01.415Z,105.67
2018-12-24T12:41:41.277Z,106.67
2018-12-24T12:44:20.543Z,102.80
2018-12-24T12:47:00.422Z,103.27
2018-12-24T12:49:39.821Z,106.47
2018-12-24T12:52:19.395Z,105.47
2018-12-24T12:54:59.024Z,108.60
2018-12-24T12:57:38.420Z,107.17
2018-12-24T13:00:18.462Z,107.67
2018-12-24T13:02:57.810Z,108.57
2018-12-24T13:05:37.570Z,106.90
2018-12-24T13:08:17.427Z,105.87
2018-12-24T13:10:57.629Z,107.83
2018-12-24T13:13:37.746Z,107.60
2018-12-24T13:16:17.795Z,107.73
2018-12-24T13:18:57.482Z,105.87
2018-12-24T13:21:37.427Z,107.90
2018-12-24T13:24:17.233Z,107.23
2018-12-24T13:26:57.074Z,110.63
2018-12-24T13:29:36.830Z,106.90
2018-12-24T13:32:16.681Z,107.37
2018-12-24T13:34:56.018Z,109.40
2018-12-24T13:37:35.871Z,107.93
2018-12-24T13:40:15.696Z,106.30
2018-12-24T13:42:55.218Z,107.40
2018-12-24T13:45:21.625Z,108.50
2018-12-24T13:48:07.850Z,107.57
2018-12-24T13:50:54.171Z,108.10
2018-12-24T13:53:41.702Z,109.50
2018-12-24T13:56:15.597Z,108.40
2018-12-24T13:58:55.242Z,114.00
2018-12-24T14:01:34.876Z,107.50
2018-12-24T14:04:14.344Z,107.90
2018-12-24T14:06:53.984Z,106.37
2018-12-24T14:09:33.862Z,108.00
2018-12-24T14:12:13.560Z,109.00
2018-12-24T14:14:53.118Z,108.27
2018-12-24T14:17:32.730Z,107.97
2018-12-24T14:20:12.416Z,108.23
2018-12-24T14:22:51.732Z,108.97
2018-12-24T14:25:31.156Z,107.77
2018-12-24T14:28:10.814Z,108.50
2018-12-24T14:30:50.596Z,109.37
2018-12-24T14:33:31.207Z,109.20
2018-12-24T14:36:11.253Z,110.30
2018-12-24T14:38:50.880Z,107.27
2018-12-24T14:41:30.498Z,109.37
2018-12-24T14:44:09.927Z,108.87
2018-12-24T14:46:49.551Z,108.27
2018-12-24T14:49:29.354Z,110.10
2018-12-24T14:52:08.819Z,111.37
2018-12-24T14:54:48.442Z,110.70
2018-12-24T14:57:27.978Z,108.90
2018-12-24T15:00:08.136Z,107.90
2018-12-24T15:02:48.456Z,110.37
2018-12-24T15:05:28.264Z,109.10
2018-12-24T15:08:07.941Z,108.40
2018-12-24T15:10:47.335Z,108.83
2018-12-24T15:13:26.866Z,107.97
2018-12-24T15:16:06.585Z,108.17
2018-12-24T15:18:45.810Z,108.40
2018-12-24T15:21:25.380Z,109.47
2018-12-24T15:24:04.928Z,108.07
2018-12-24T15:26:44.871Z,110.30
2018-12-24T15:29:24.597Z,110.67
2018-12-24T15:32:04.062Z,109.80
2018-12-24T15:34:43.819Z,108.40
2018-12-24T15:37:23.368Z,111.37
2018-12-24T15:40:02.920Z,110.07
2018-12-24T15:42:42.259Z,108.93
2018-12-24T15:45:21.807Z,108.97
2018-12-24T15:48:01.917Z,109.03
2018-12-24T15:50:41.449Z,109.73
2018-12-24T15:53:21.398Z,107.47
2018-12-24T15:56:00.810Z,108.00
2018-12-24T15:58:40.565Z,108.30
2018-12-24T16:01:20.372Z,109.97
2018-12-24T16:03:59.979Z,107.33
2018-12-24T16:06:39.453Z,108.97
2018-12-24T16:09:18.740Z,109.20
2018-12-24T16:11:58.432Z,108.77
2018-12-24T16:14:37.738Z,108.90
2018-12-24T16:17:17.348Z,108.20
2018-12-24T16:19:57.214Z,108.60
2018-12-24T16:22:37.403Z,108.37
2018-12-24T16:25:17.344Z,109.27
2018-12-24T16:27:57.523Z,112.10
2018-12-24T16:30:36.948Z,107.87
2018-12-24T16:33:16.459Z,109.67
2018-12-24T16:35:55.887Z,109.50
2018-12-24T16:38:36.095Z,107.87
2018-12-24T16:41:15.590Z,107.37
2018-12-24T16:43:55.103Z,110.60
2018-12-24T16:46:34.422Z,110.60
2018-12-24T16:49:14.086Z,109.07
2018-12-24T16:51:53.524Z,109.20
2018-12-24T16:54:33.237Z,109.57
2018-12-24T16:57:12.882Z,111.87
2018-12-24T16:59:55.084Z,110.40
2018-12-24T17:02:34.409Z,107.87
2018-12-24T17:05:14.167Z,111.67
2018-12-24T17:07:53.914Z,110.27
2018-12-24T17:10:34.184Z,111.37
2018-12-24T17:13:11.596Z,109.77
2018-12-24T17:15:57.916Z,110.13
2018-12-24T17:18:44.139Z,114.20
2018-12-24T17:21:30.388Z,110.00
2018-12-24T17:24:16.657Z,109.47
2018-12-24T17:27:02.955Z,110.63
2018-12-24T17:29:49.193Z,111.40
2018-12-24T17:32:35.429Z,113.50
2018-12-24T17:35:21.660Z,112.87
2018-12-24T17:38:07.913Z,115.00
2018-12-24T17:40:54.198Z,112.57
2018-12-24T17:43:40.705Z,113.27
2018-12-24T17:46:27.042Z,117.83
2018-12-24T17:49:13.302Z,114.53
2018-12-24T17:51:59.542Z,112.80
2018-12-24T17:54:45.887Z,114.50
2018-12-24T17:57:25.917Z,116.20
2018-12-24T18:00:05.235Z,113.67
2018-12-24T18:02:44.740Z,114.10
2018-12-24T18:05:24.522Z,114.90
2018-12-24T18:08:03.764Z,116.63
2018-12-24T18:10:43.458Z,114.47
2018-12-24T18:13:22.807Z,115.90
2018-12-24T18:16:02.549Z,116.40
2018-12-24T18:18:42.665Z,116.60
2018-12-24T18:21:22.183Z,117.20
2018-12-24T18:24:01.781Z,121.97
2018-12-24T18:26:41.242Z,115.57
2018-12-24T18:29:20.655Z,118.97
2018-12-24T18:32:00.049Z,116.30
2018-12-24T18:34:39.767Z,119.93
2018-12-24T18:37:19.633Z,119.77
2018-12-24T18:39:59.022Z,121.30
2018-12-24T18:42:39.126Z,117.73
2018-12-24T18:45:19.412Z,119.17
2018-12-24T18:47:59.460Z,119.13
2018-12-24T18:50:39.262Z,120.17
2018-12-24T18:53:18.792Z,118.40
2018-12-24T18:55:58.339Z,119.73
2018-12-24T18:58:38.046Z,122.47
2018-12-24T19:01:17.393Z,120.17
2018-12-24T19:03:56.819Z,118.83
2018-12-24T19:06:36.525Z,119.60
2018-12-24T19:09:15.846Z,121.10
2018-12-24T19:11:55.403Z,119.57
2018-12-24T19:14:34.969Z,121.37
2018-12-24T19:17:14.449Z,119.10
2018-12-24T19:19:53.829Z,116.93
2018-12-24T19:22:33.377Z,116.30
2018-12-24T19:25:13.390Z,116.40
2018-12-24T19:27:53.040Z,118.60
2018-12-24T19:30:33.265Z,118.27
2018-12-24T19:33:12.920Z,118.90
2018-12-24T19:35:52.618Z,117.87
2018-12-24T19:38:32.050Z,119.57
2018-12-24T19:41:11.576Z,119.50
2018-12-24T19:43:51.186Z,118.23
2018-12-24T19:46:30.726Z,116.77
2018-12-24T19:49:10.048Z,115.97
2018-12-24T19:51:49.759Z,117.07
2018-12-24T19:54:29.719Z,117.77
2018-12-24T19:57:09.277Z,116.80
2018-12-24T19:59:48.711Z,116.70
2018-12-24T20:02:28.365Z,117.20
2018-12-24T20:05:07.906Z,120.37
2018-12-24T20:07:47.302Z,122.90
2018-12-24T20:10:26.878Z,123.17
2018-12-24T20:13:06.380Z,117.67
2018-12-24T20:15:45.924Z,118.37
2018-12-24T20:18:25.930Z,119.47
2018-12-24T20:21:05.315Z,117.53
2018-12-24T20:23:44.881Z,122.67
2018-12-24T20:26:24.231Z,120.97
2018-12-24T20:29:03.748Z,119.37
2018-12-24T20:31:43.645Z,118.10
2018-12-24T20:34:23.135Z,117.53
2018-12-24T20:37:02.405Z,120.70
2018-12-24T20:39:42.079Z,117.53
2018-12-24T20:42:46.232Z,120.23
2018-12-24T20:45:10.153Z,123.77
2018-12-24T20:47:50.471Z,118.57
2018-12-24T20:50:30.179Z,130.40
2018-12-24T20:53:09.947Z,128.40
2018-12-24T20:55:49.520Z,128.30
2018-12-24T20:58:29.073Z,117.50
2018-12-24T21:01:11.714Z,118.27
2018-12-24T21:03:51.317Z,120.27
2018-12-24T21:06:31.203Z,117.57
2018-12-24T21:09:11.271Z,117.10
2018-12-24T21:11:50.753Z,118.47
2018-12-24T21:14:30.135Z,119.37
2018-12-24T21:17:09.756Z,124.87
2018-12-24T21:19:49.417Z,114.90
2018-12-24T21:22:28.959Z,126.13
2018-12-24T21:25:08.320Z,115.40
2018-12-24T21:27:47.762Z,114.70
2018-12-24T21:30:27.047Z,121.00
2018-12-24T21:33:06.557Z,115.97
2018-12-24T21:35:46.085Z,118.57
2018-12-24T21:38:25.906Z,114.53
2018-12-24T21:41:05.530Z,112.90
2018-12-24T21:43:44.795Z,114.33
2018-12-24T21:46:24.689Z,115.90
2018-12-24T21:49:04.518Z,112.87
2018-12-24T21:51:43.950Z,114.77
2018-12-24T21:54:23.742Z,115.27
2018-12-24T21:57:03.153Z,115.07
2018-12-24T21:59:43.063Z,114.90
2018-12-24T22:02:22.772Z,114.00
2018-12-24T22:05:03.196Z,114.40
2018-12-24T22:07:42.966Z,122.97
2018-12-24T22:10:22.601Z,115.53
2018-12-24T22:13:02.153Z,115.53
2018-12-24T22:15:41.873Z,115.70
2018-12-24T22:18:21.335Z,115.73
2018-12-24T22:21:01.135Z,118.40
2018-12-24T22:23:40.973Z,116.60
2018-12-24T22:26:20.654Z,122.53
2018-12-24T22:29:00.230Z,117.07
2018-12-24T22:31:40.303Z,111.37
2018-12-24T22:34:20.431Z,111.93
2018-12-24T22:37:00.517Z,114.17
2018-12-24T22:39:39.975Z,114.40
2018-12-24T22:42:19.560Z,113.07
2018-12-24T22:44:58.918Z,113.10
2018-12-24T22:47:39.217Z,111.87
2018-12-24T22:50:18.933Z,115.87
2018-12-24T22:52:58.250Z,111.83
2018-12-24T22:55:37.670Z,116.33
2018-12-24T22:58:17.318Z,113.20
2018-12-24T23:00:57.098Z,113.20
2018-12-24T23:03:37.347Z,112.97
2018-12-24T23:06:16.917Z,111.40
2018-12-24T23:08:56.559Z,119.80
2018-12-24T23:11:36.081Z,114.07
2018-12-24T23:14:15.851Z,113.80
2018-12-24T23:16:55.568Z,114.27
2018-12-24T23:19:35.322Z,112.13
2018-12-24T23:22:14.914Z,113.47
2018-12-24T23:24:54.369Z,109.77
2018-12-24T23:27:34.073Z,115.70
2018-12-24T23:30:13.597Z,111.87
2018-12-24T23:32:53.691Z,113.33
2018-12-24T23:35:32.982Z,110.33
2018-12-24T23:38:12.480Z,112.40
2018-12-24T23:40:52.179Z,109.37
2018-12-24T23:43:31.791Z,111.33
2018-12-24T23:46:11.530Z,109.47
2018-12-24T23:48:57.624Z,112.60
2018-12-24T23:51:32.752Z,112.97
2018-12-24T23:54:12.070Z,111.17
2018-12-24T23:56:51.667Z,111.57
2018-12-24T23:59:31.175Z,116.50
